Time;durP1;ratioP1;P1;durP2;ratioP2;P2;SDS_P1;SDS_P2;PMS_P1;PMS_P2;Temp;Humidity;BMP_temperature;BMP_pressure;BME280_temperature;BME280_humidity;BME280_pressure;Samples;Min_cycle;Max_cycle;Signal;HPM_P1;HPM_P2
2021/07/14 00:00:28;;;;;;;19.15;14.90;;;;;;;25.08;52.10;99933.84;6157042;23;20020;-66
2021/07/14 00:02:54;;;;;;;26.30;14.98;;;;;;;25.10;52.20;99930.06;6183515;23;20009;-71
2021/07/14 00:05:21;;;;;;;23.55;14.40;;;;;;;25.08;52.37;99939.31;6183822;23;20084;-71
2021/07/14 00:07:48;;;;;;;23.75;14.43;;;;;;;25.03;52.46;99941.03;6183527;23;20001;-71
2021/07/14 00:10:19;;;;;;;22.88;14.98;;;;;;;25.04;52.72;99940.78;6183614;23;20060;-72
2021/07/14 00:23:44;;;;;;;21.13;14.48;;;;;;;24.85;53.33;99933.50;6149268;23;20405;-74
2021/07/14 00:26:10;;;;;;;26.98;14.82;;;;;;;24.82;53.40;99934.78;6183556;23;20040;-68
2021/07/14 00:28:36;;;;;;;23.73;15.32;;;;;;;24.77;53.61;99938.16;6184013;23;20032;-70
2021/07/14 00:31:05;;;;;;;20.13;15.00;;;;;;;24.79;53.79;99944.25;6183230;23;20367;-72
2021/07/14 00:33:46;;;;;;;27.75;15.88;;;;;;;24.79;53.81;99937.94;6183810;23;20002;-74
2021/07/14 00:36:15;;;;;;;21.33;14.43;;;;;;;24.80;53.76;99956.06;6184098;23;20055;-72
2021/07/14 00:38:41;;;;;;;20.35;15.13;;;;;;;24.73;54.11;99945.09;6183674;23;20419;-72
2021/07/14 00:41:07;;;;;;;21.70;15.20;;;;;;;24.74;53.78;99954.97;6183878;23;19997;-68
2021/07/14 00:43:33;;;;;;;19.90;15.00;;;;;;;24.71;54.40;99949.94;6183972;23;20016;-72
2021/07/14 00:46:06;;;;;;;19.85;14.32;;;;;;;24.74;54.21;99957.72;6183183;23;20013;-70
2021/07/14 00:48:32;;;;;;;21.38;15.02;;;;;;;24.63;54.42;99959.22;6183486;23;20419;-70
2021/07/14 00:50:57;;;;;;;23.77;13.85;;;;;;;24.60;54.67;99953.34;6183702;23;20052;-71
2021/07/14 00:53:23;;;;;;;26.38;15.52;;;;;;;24.52;54.73;99947.03;6184176;23;20096;-71
2021/07/14 00:55:49;;;;;;;21.95;14.45;;;;;;;24.54;55.00;99951.44;6183679;23;20005;-70
2021/07/14 00:58:14;;;;;;;23.65;15.02;;;;;;;24.46;55.05;99947.03;6183658;23;20467;-68
2021/07/14 01:00:40;;;;;;;20.95;15.18;;;;;;;24.48;55.21;99951.25;6183859;23;20020;-71
2021/07/14 01:03:05;;;;;;;16.95;15.15;;;;;;;24.47;55.33;99952.28;6184015;23;20151;-71
2021/07/14 01:05:30;;;;;;;21.20;15.60;;;;;;;24.45;55.20;99957.16;6183735;23;20440;-71
2021/07/14 01:08:01;;;;;;;24.17;14.48;;;;;;;24.44;54.70;99952.72;6183309;23;20019;-70
2021/07/14 01:10:41;;;;;;;23.52;14.77;;;;;;;24.49;54.74;99954.84;6183853;23;20005;-72
2021/07/14 01:13:14;;;;;;;21.85;14.63;;;;;;;24.49;54.74;99950.19;6184032;23;20388;-69
2021/07/14 01:15:46;;;;;;;21.88;15.98;;;;;;;24.46;54.74;99947.03;6183544;23;20047;-71
2021/07/14 01:18:21;;;;;;;23.33;15.10;;;;;;;24.52;54.66;99949.75;6183375;23;20055;-66
2021/07/14 01:20:52;;;;;;;21.03;15.10;;;;;;;24.49;54.82;99957.56;6183760;23;20115;-70
2021/07/14 01:23:30;;;;;;;19.98;14.85;;;;;;;24.51;54.66;99950.81;6157143;23;20016;-71
2021/07/14 01:26:16;;;;;;;18.83;13.68;;;;;;;24.49;54.60;99958.41;6183296;23;20042;-72
2021/07/14 01:28:45;;;;;;;21.40;14.07;;;;;;;24.44;54.62;99950.00;6157018;23;20439;-64
2021/07/14 01:31:17;;;;;;;20.85;14.13;;;;;;;24.42;54.70;99957.56;6184037;23;20005;-73
2021/07/14 01:33:45;;;;;;;16.92;13.68;;;;;;;24.44;54.85;99955.47;6183586;23;20008;-65
2021/07/14 01:36:15;;;;;;;19.83;13.68;;;;;;;24.44;54.57;99958.19;6183271;23;20036;-71
2021/07/14 01:38:44;;;;;;;20.40;13.70;;;;;;;24.49;54.43;99952.91;6183516;23;20071;-70
2021/07/14 01:41:13;;;;;;;15.68;14.02;;;;;;;24.49;54.90;99957.56;6183592;23;19997;-72
2021/07/14 01:43:43;;;;;;;16.75;13.77;;;;;;;24.51;54.11;99953.53;6183167;23;20320;-72
2021/07/14 01:46:09;;;;;;;15.93;13.48;;;;;;;24.50;53.83;99949.13;6183500;23;20001;-72
2021/07/14 01:48:41;;;;;;;20.80;14.02;;;;;;;24.55;53.44;99953.97;6182904;23;20008;-72
2021/07/14 01:51:08;;;;;;;24.65;14.88;;;;;;;24.58;53.47;99955.44;6183238;23;20104;-72
2021/07/14 01:53:37;;;;;;;17.48;13.43;;;;;;;24.64;53.54;99955.41;6182993;23;20171;-70
2021/07/14 01:56:11;;;;;;;19.40;13.52;;;;;;;24.65;53.28;99959.00;6182938;23;20008;-71
2021/07/14 01:58:46;;;;;;;17.00;13.45;;;;;;;24.75;53.01;99961.34;6183030;23;20016;-71
2021/07/14 02:01:14;;;;;;;18.77;13.68;;;;;;;24.72;52.99;99962.56;6183124;23;20008;-72
2021/07/14 02:06:28;;;;;;;16.80;13.93;;;;;;;24.78;52.96;99949.97;6182682;23;20009;-69
2021/07/14 02:08:53;;;;;;;17.13;12.75;;;;;;;24.82;52.94;99950.34;6182707;23;20301;-70
2021/07/14 02:11:23;;;;;;;15.95;12.80;;;;;;;24.90;52.44;99958.34;6183373;23;20103;-70
2021/07/14 02:13:52;;;;;;;16.60;13.48;;;;;;;24.88;52.39;99955.00;6183323;23;20008;-72
2021/07/14 02:16:19;;;;;;;18.48;13.18;;;;;;;24.93;52.80;99952.44;6182806;23;20028;-70
2021/07/14 02:18:50;;;;;;;20.60;13.38;;;;;;;25.06;52.16;99959.75;6183107;23;20033;-62
2021/07/14 02:21:15;;;;;;;15.45;13.13;;;;;;;25.14;51.91;99948.56;6183488;23;20016;-67
2021/07/14 02:23:41;;;;;;;19.45;12.38;;;;;;;25.22;51.92;99944.72;6183115;23;20012;-71
2021/07/14 02:26:07;;;;;;;16.27;13.43;;;;;;;25.39;51.57;99945.06;6182639;23;20120;-71
2021/07/14 02:28:32;;;;;;;19.73;13.77;;;;;;;25.50;51.30;99949.03;6183419;23;20077;-70
2021/07/14 02:30:58;;;;;;;17.65;13.30;;;;;;;25.71;50.83;99952.50;6183393;23;20001;-70
2021/07/14 02:33:24;;;;;;;18.30;13.43;;;;;;;25.86;50.40;99954.94;6183009;23;20008;-70
2021/07/14 02:35:52;;;;;;;19.98;13.07;;;;;;;26.05;49.99;99947.63;6182765;23;20032;-68
2021/07/14 02:38:25;;;;;;;18.38;13.55;;;;;;;26.33;49.51;99949.09;6156888;23;20001;-66
2021/07/14 02:40:59;;;;;;;18.00;13.23;;;;;;;26.65;48.49;99949.00;6182768;23;20443;-67
2021/07/14 02:43:27;;;;;;;17.70;12.87;;;;;;;26.70;47.62;99927.19;6183034;23;20028;-72
2021/07/14 02:45:56;;;;;;;17.30;13.00;;;;;;;27.04;47.60;99949.66;6182913;23;20246;-74
2021/07/14 02:48:24;;;;;;;20.67;13.05;;;;;;;27.21;46.86;99951.75;6183400;23;20005;-73
2021/07/14 02:50:51;;;;;;;20.85;14.25;;;;;;;27.15;46.74;99950.78;6183056;23;20013;-72
2021/07/14 02:53:21;;;;;;;17.25;13.57;;;;;;;27.14;47.21;99957.34;6182793;23;20005;-62
2021/07/14 02:55:52;;;;;;;19.70;13.80;;;;;;;27.09;47.15;99954.44;6183301;23;20009;-72
2021/07/14 02:58:22;;;;;;;18.48;12.88;;;;;;;27.06;46.90;99963.16;6183182;23;20423;-71
2021/07/14 03:00:49;;;;;;;19.23;13.45;;;;;;;27.00;47.41;99958.56;6156557;23;20068;-69
2021/07/14 03:03:15;;;;;;;18.80;12.60;;;;;;;27.01;47.86;99949.25;6182953;23;20088;-71
2021/07/14 03:05:42;;;;;;;17.60;13.85;;;;;;;27.03;47.40;99958.97;6182976;23;20047;-70
2021/07/14 03:08:13;;;;;;;15.75;14.07;;;;;;;27.01;47.06;99957.50;6183357;23;20059;-72
2021/07/14 03:10:41;;;;;;;18.60;14.30;;;;;;;27.04;47.01;99948.78;6183381;23;20005;-70
2021/07/14 03:13:07;;;;;;;19.58;14.60;;;;;;;27.12;47.08;99953.16;6184508;23;20023;-71
2021/07/14 03:15:39;;;;;;;26.42;14.60;;;;;;;27.39;46.54;99952.78;6184823;23;20430;-69
2021/07/14 03:18:07;;;;;;;19.73;13.70;;;;;;;27.64;45.50;99953.53;6184915;23;20013;-70
2021/07/14 03:20:35;;;;;;;20.92;14.40;;;;;;;27.92;44.73;99943.78;6184394;23;20005;-70
2021/07/14 03:23:02;;;;;;;20.30;14.00;;;;;;;28.37;44.20;99944.34;6184316;23;20000;-70
2021/07/14 03:25:28;;;;;;;16.33;14.02;;;;;;;28.99;42.54;99950.41;6185345;23;20001;-71
2021/07/14 03:27:55;;;;;;;16.33;13.32;;;;;;;29.58;40.95;99949.41;6185716;23;20001;-73
2021/07/14 03:30:23;;;;;;;18.30;13.25;;;;;;;30.18;39.95;99953.50;6183969;23;20050;-70
2021/07/14 03:32:50;;;;;;;18.45;14.00;;;;;;;30.77;38.15;99938.34;6184299;23;20008;-65
2021/07/14 03:35:16;;;;;;;18.05;13.65;;;;;;;31.28;37.09;99934.56;6184736;23;20001;-73
2021/07/14 03:37:48;;;;;;;23.35;14.25;;;;;;;31.91;36.42;99944.34;6184255;23;20008;-73
2021/07/14 03:40:15;;;;;;;18.13;13.57;;;;;;;32.32;35.38;99938.31;6184492;23;20001;-69
2021/07/14 03:42:42;;;;;;;20.67;12.98;;;;;;;32.82;34.26;99938.88;6183459;23;20035;-68
2021/07/14 03:45:09;;;;;;;16.38;13.45;;;;;;;33.28;33.34;99935.50;6184188;23;20001;-67
2021/07/14 03:47:35;;;;;;;17.52;13.35;;;;;;;33.66;32.31;99935.31;6157666;23;20077;-69
2021/07/14 03:50:04;;;;;;;16.67;13.52;;;;;;;34.05;32.41;99945.09;6183698;23;20025;-68
2021/07/14 03:52:30;;;;;;;16.23;13.05;;;;;;;34.28;31.37;99934.50;6184264;23;20024;-67
2021/07/14 03:54:56;;;;;;;17.88;13.52;;;;;;;34.66;30.62;99946.09;6184235;23;20019;-69
2021/07/14 03:57:22;;;;;;;19.13;13.48;;;;;;;35.05;30.00;99923.19;6184197;23;20005;-68
2021/07/14 03:59:50;;;;;;;19.95;13.10;;;;;;;35.52;29.21;99928.50;6184761;23;20043;-69
2021/07/14 04:02:16;;;;;;;14.52;13.00;;;;;;;35.94;28.34;99940.16;6183944;23;20001;-71
2021/07/14 04:04:45;;;;;;;17.70;14.30;;;;;;;36.42;27.60;99927.47;6183680;23;20001;-69
2021/07/14 04:07:22;;;;;;;24.20;13.25;;;;;;;36.99;27.04;99937.97;6183645;23;20020;-70
2021/07/14 04:09:48;;;;;;;15.80;13.23;;;;;;;37.12;26.23;99922.50;6184224;23;20084;-70
2021/07/14 04:12:14;;;;;;;16.77;12.93;;;;;;;37.58;25.40;99933.00;6183140;23;19997;-69
2021/07/14 04:14:41;;;;;;;25.55;12.93;;;;;;;38.06;24.48;99933.94;6183646;23;20136;-69
2021/07/14 04:17:06;;;;;;;18.08;12.15;;;;;;;38.51;24.38;99930.63;6184159;23;20013;-68
2021/07/14 04:19:32;;;;;;;14.23;11.55;;;;;;;39.12;22.87;99935.28;6183857;23;20013;-68
2021/07/14 04:21:58;;;;;;;14.88;13.27;;;;;;;39.64;22.42;99934.13;6183672;23;20013;-70
2021/07/14 04:24:23;;;;;;;14.07;11.77;;;;;;;40.19;21.93;99935.84;6184058;23;20071;-68
2021/07/14 04:26:50;;;;;;;14.13;12.60;;;;;;;40.69;21.16;99923.50;6157720;23;20020;-72
2021/07/14 04:29:17;;;;;;;18.40;13.55;;;;;;;41.13;20.70;99931.25;6183899;23;20005;-66
2021/07/14 04:31:43;;;;;;;15.65;12.35;;;;;;;41.50;20.17;99936.56;6183590;23;20032;-65
2021/07/14 04:34:08;;;;;;;20.63;12.55;;;;;;;41.89;19.32;99915.91;6184269;23;20059;-66
2021/07/14 04:36:35;;;;;;;16.92;12.48;;;;;;;42.23;18.98;99926.59;6183636;23;20005;-73
2021/07/14 04:39:02;;;;;;;17.45;12.93;;;;;;;42.76;18.51;99930.00;6184020;23;20005;-71
2021/07/14 04:41:28;;;;;;;14.75;12.07;;;;;;;43.27;18.20;99930.03;6182855;23;20005;-73
2021/07/14 04:43:56;;;;;;;16.33;12.85;;;;;;;43.80;17.60;99923.97;6183529;23;20013;-74
2021/07/14 04:46:22;;;;;;;16.20;12.05;;;;;;;44.40;16.88;99936.94;6182453;23;20080;-72
2021/07/14 04:48:47;;;;;;;13.10;11.65;;;;;;;44.89;16.82;99933.31;6157017;23;20029;-73
2021/07/14 04:51:13;;;;;;;17.30;12.52;;;;;;;45.20;16.35;99931.88;6184156;23;20013;-72
2021/07/14 04:53:38;;;;;;;17.40;11.35;;;;;;;45.53;15.90;99933.66;6183762;23;20088;-74
2021/07/14 04:56:04;;;;;;;14.23;11.93;;;;;;;45.93;15.44;99939.63;6183825;23;20016;-74
2021/07/14 04:58:29;;;;;;;15.38;12.10;;;;;;;46.36;15.07;99935.13;6183644;23;20008;-73
2021/07/14 05:00:55;;;;;;;15.73;11.43;;;;;;;46.78;14.64;99927.25;6183678;23;20439;-75
2021/07/14 05:03:20;;;;;;;15.82;10.88;;;;;;;47.37;14.16;99925.38;6184639;23;20485;-74
2021/07/14 05:05:46;;;;;;;16.65;10.85;;;;;;;47.71;13.98;99922.00;6183669;23;20059;-75
2021/07/14 05:08:11;;;;;;;19.00;10.73;;;;;;;47.82;13.78;99931.56;6183239;23;20319;-75
2021/07/14 05:10:38;;;;;;;11.75;10.20;;;;;;;48.12;13.46;99928.06;6183494;23;20443;-70
2021/07/14 05:13:03;;;;;;;14.98;10.25;;;;;;;48.32;13.22;99925.16;6183944;23;20008;-71
2021/07/14 05:15:29;;;;;;;12.63;10.35;;;;;;;48.64;13.05;99922.03;6183192;23;20067;-70
2021/07/14 05:17:54;;;;;;;12.70;9.88;;;;;;;48.90;12.44;99920.41;6182436;23;20016;-71
2021/07/14 05:20:20;;;;;;;10.88;9.70;;;;;;;49.10;12.39;99926.78;6183404;23;20445;-69
2021/07/14 05:22:47;;;;;;;11.00;9.55;;;;;;;49.57;12.16;99932.31;6156953;23;20025;-68
2021/07/14 05:25:12;;;;;;;13.65;10.20;;;;;;;49.93;11.30;99920.50;6183149;23;20095;-69
2021/07/14 05:27:38;;;;;;;18.30;9.73;;;;;;;50.47;11.02;99923.00;6182869;23;20000;-68
2021/07/14 05:30:08;;;;;;;10.75;9.50;;;;;;;50.99;10.93;99934.38;6183188;23;20013;-71
2021/07/14 05:32:34;;;;;;;13.00;8.73;;;;;;;51.14;10.25;99931.59;6182424;23;20261;-71
2021/07/14 05:35:00;;;;;;;13.07;9.52;;;;;;;51.50;10.26;99924.03;6183664;23;20012;-72
2021/07/14 05:37:25;;;;;;;12.43;8.43;;;;;;;51.92;9.38;99926.59;6157140;23;20001;-69
2021/07/14 05:39:50;;;;;;;10.68;9.60;;;;;;;52.37;9.17;99927.06;6183136;23;20009;-64
2021/07/14 05:42:16;;;;;;;13.35;8.73;;;;;;;52.43;9.23;99930.31;6191091;23;20039;-68
2021/07/14 05:44:41;;;;;;;11.10;9.52;;;;;;;52.54;9.02;99922.56;6196981;23;20009;-72
2021/07/14 05:47:07;;;;;;;10.85;9.30;;;;;;;52.85;8.98;99929.84;6183316;23;20001;-75
2021/07/14 05:49:32;;;;;;;14.45;8.52;;;;;;;53.35;8.64;99923.16;6156979;23;20008;-74
2021/07/14 05:51:58;;;;;;;12.05;9.38;;;;;;;53.83;8.03;99923.75;6183108;23;20005;-71
2021/07/14 05:54:23;;;;;;;12.63;8.65;;;;;;;54.12;7.54;99920.69;6183357;23;20354;-69
2021/07/14 05:56:49;;;;;;;10.45;8.32;;;;;;;54.58;7.22;99924.34;6183341;23;20494;-74
2021/07/14 05:59:14;;;;;;;8.45;7.68;;;;;;;54.82;7.06;99919.63;6182561;23;20055;-71
2021/07/14 06:01:40;;;;;;;8.35;7.65;;;;;;;54.55;6.73;99923.16;6183244;23;20243;-72
2021/07/14 06:04:06;;;;;;;9.07;8.07;;;;;;;54.70;6.75;99918.13;6183271;23;20387;-73
2021/07/14 06:06:32;;;;;;;10.07;8.57;;;;;;;55.12;6.83;99903.72;6182899;23;20009;-72
2021/07/14 06:08:58;;;;;;;8.60;7.70;;;;;;;55.27;6.44;99910.06;6156436;23;20016;-71
2021/07/14 06:11:24;;;;;;;7.20;6.70;;;;;;;55.34;5.60;99901.34;6157299;23;20001;-72
2021/07/14 06:13:51;;;;;;;7.15;6.55;;;;;;;55.11;6.22;99907.81;6183275;23;20019;-70
2021/07/14 06:16:16;;;;;;;9.18;7.38;;;;;;;55.03;6.21;99897.69;6156645;23;20013;-72
2021/07/14 06:18:42;;;;;;;10.70;8.40;;;;;;;54.77;6.09;99903.69;6183967;23;20040;-73
2021/07/14 06:21:07;;;;;;;8.45;7.60;;;;;;;54.30;6.40;99907.00;6183781;23;20297;-71
2021/07/14 06:23:34;;;;;;;9.35;7.82;;;;;;;54.58;6.34;99905.13;6183476;23;20346;-70
2021/07/14 06:26:00;;;;;;;9.18;8.32;;;;;;;54.60;6.63;99887.47;6183834;23;20012;-71
2021/07/14 06:28:25;;;;;;;8.18;7.32;;;;;;;54.92;5.88;99884.25;6184976;23;20005;-72
2021/07/14 06:30:51;;;;;;;6.72;6.18;;;;;;;55.23;6.24;99898.66;6188476;23;20167;-63
2021/07/14 06:33:17;;;;;;;8.25;6.70;;;;;;;55.40;5.64;99890.22;6205917;23;20004;-73
2021/07/14 06:35:43;;;;;;;7.38;6.63;;;;;;;55.93;5.51;99896.41;6193679;23;20027;-72
2021/07/14 06:38:09;;;;;;;8.07;7.10;;;;;;;56.19;5.40;99893.94;6182634;23;20043;-71
2021/07/14 06:40:37;;;;;;;8.38;7.65;;;;;;;56.60;5.56;99886.19;6182887;23;20001;-69
2021/07/14 06:43:08;;;;;;;10.75;7.57;;;;;;;57.29;5.12;99890.59;6182608;23;20005;-69
2021/07/14 06:45:34;;;;;;;7.72;7.13;;;;;;;57.70;4.90;99881.84;6184005;23;20012;-65
2021/07/14 06:47:59;;;;;;;7.95;7.22;;;;;;;58.10;4.70;99886.59;6185092;23;20314;-69
2021/07/14 06:50:25;;;;;;;8.88;7.13;;;;;;;58.06;4.47;99889.59;6184485;23;20005;-70
2021/07/14 06:52:51;;;;;;;8.95;8.18;;;;;;;58.44;4.51;99894.75;6184778;23;20359;-70
2021/07/14 06:55:17;;;;;;;8.95;8.25;;;;;;;58.53;4.26;99896.22;6184716;23;20055;-65
2021/07/14 06:57:45;;;;;;;8.40;7.57;;;;;;;58.47;4.11;99893.03;6185195;23;20301;-64
2021/07/14 07:00:12;;;;;;;8.85;8.05;;;;;;;58.47;3.73;99893.84;6185257;23;20035;-65
2021/07/14 07:02:38;;;;;;;8.18;7.57;;;;;;;58.30;4.25;99893.06;6184179;23;20032;-64
2021/07/14 07:05:05;;;;;;;9.13;8.45;;;;;;;58.39;4.17;99894.53;6183906;23;20301;-63
2021/07/14 07:07:31;;;;;;;9.00;8.25;;;;;;;58.09;3.99;99867.69;6184365;23;20043;-65
2021/07/14 07:09:56;;;;;;;9.27;8.35;;;;;;;57.87;4.08;99894.16;6184514;23;19996;-64
2021/07/14 07:12:22;;;;;;;9.57;8.63;;;;;;;57.81;4.17;99875.81;6183788;23;20016;-62
2021/07/14 07:14:47;;;;;;;10.43;9.73;;;;;;;58.24;4.14;99879.66;6182970;23;19997;-61
2021/07/14 07:17:13;;;;;;;9.88;9.02;;;;;;;58.76;3.97;99878.66;6183176;23;20108;-63
2021/07/14 07:19:38;;;;;;;9.07;8.32;;;;;;;59.02;4.15;99886.56;6183480;23;20040;-62
2021/07/14 07:22:04;;;;;;;9.80;9.10;;;;;;;59.37;3.46;99886.72;6182907;23;20009;-63
2021/07/14 07:24:31;;;;;;;10.30;9.68;;;;;;;59.75;3.19;99888.81;6183318;23;20223;-62
2021/07/14 07:26:57;;;;;;;10.18;9.57;;;;;;;59.92;2.90;99882.91;6183860;23;20052;-62
2021/07/14 07:29:22;;;;;;;10.93;10.10;;;;;;;60.24;2.47;99878.06;6184349;23;20354;-63
2021/07/14 07:31:48;;;;;;;11.33;10.30;;;;;;;60.38;2.39;99884.66;6184084;23;20011;-63
2021/07/14 07:34:15;;;;;;;12.02;11.23;;;;;;;60.48;2.51;99885.53;6183481;23;20719;-63
2021/07/14 07:36:40;;;;;;;11.25;10.48;;;;;;;60.38;3.26;99875.97;6183776;23;20008;-61
2021/07/14 07:39:06;;;;;;;12.23;11.00;;;;;;;59.96;2.97;99877.81;6183716;23;20063;-61
2021/07/14 07:41:33;;;;;;;10.95;10.18;;;;;;;59.69;3.04;99875.41;6181515;23;20001;-63
2021/07/14 07:43:58;;;;;;;10.82;10.15;;;;;;;59.60;3.21;99873.25;6182014;23;20048;-61
2021/07/14 07:46:24;;;;;;;11.75;10.95;;;;;;;59.59;3.09;99877.41;6182849;23;20013;-61
2021/07/14 07:48:50;;;;;;;11.95;11.15;;;;;;;59.47;3.64;99876.13;6155365;23;20051;-62
2021/07/14 07:51:16;;;;;;;11.13;10.30;;;;;;;59.24;3.61;99866.53;6182468;23;20087;-63
2021/07/14 07:53:41;;;;;;;12.50;11.48;;;;;;;59.47;3.36;99871.16;6181972;23;20491;-63
2021/07/14 07:56:07;;;;;;;12.82;11.85;;;;;;;59.82;3.74;99864.66;6182156;23;20095;-62
2021/07/14 07:58:32;;;;;;;13.57;12.48;;;;;;;59.75;3.05;99857.06;6183418;23;20052;-64
2021/07/14 08:00:59;;;;;;;12.13;11.32;;;;;;;58.80;3.96;99851.75;6183743;23;20068;-61
2021/07/14 08:03:25;;;;;;;11.68;10.32;;;;;;;55.66;6.03;99859.09;6152778;23;20009;-64
2021/07/14 08:05:51;;;;;;;9.02;8.27;;;;;;;52.97;7.34;99852.22;6179995;23;20016;-75
2021/07/14 08:08:18;;;;;;;9.93;8.95;;;;;;;50.52;8.96;99840.03;6183262;23;20027;-67
2021/07/14 08:10:43;;;;;;;8.18;7.35;;;;;;;47.91;11.34;99834.84;6183266;23;20015;-65
2021/07/14 08:13:09;;;;;;;9.00;7.35;;;;;;;46.23;12.67;99854.34;6183602;23;20072;-63
2021/07/14 08:15:35;;;;;;;11.38;7.00;;;;;;;46.61;12.09;99818.03;6183083;23;20001;-67
2021/07/14 08:18:02;;;;;;;11.60;6.75;;;;;;;48.20;10.84;99835.34;6183335;23;20084;-68
2021/07/14 08:20:28;;;;;;;7.30;6.45;;;;;;;48.86;10.03;99828.63;6182772;23;20013;-65
2021/07/14 08:22:54;;;;;;;7.80;6.13;;;;;;;48.48;10.33;99824.84;6182921;23;20055;-67
2021/07/14 08:25:20;;;;;;;9.52;6.82;;;;;;;46.89;11.54;99834.88;6157021;23;20088;-66
2021/07/14 08:27:46;;;;;;;6.85;6.30;;;;;;;45.22;13.19;99832.59;6183229;23;20051;-63
2021/07/14 08:30:12;;;;;;;7.40;6.80;;;;;;;43.66;14.31;99834.03;6182945;23;20013;-65
2021/07/14 08:32:38;;;;;;;10.73;6.78;;;;;;;42.38;15.43;99838.81;6183307;23;20083;-62
2021/07/14 08:35:06;;;;;;;10.77;6.93;;;;;;;41.24;16.38;99834.31;6183438;23;20013;-64
2021/07/14 08:37:31;;;;;;;8.38;7.28;;;;;;;40.27;17.88;99824.88;6182464;23;20354;-66
2021/07/14 08:39:58;;;;;;;10.77;7.57;;;;;;;39.48;18.51;99831.69;6183038;23;19998;-63
2021/07/14 08:42:25;;;;;;;10.07;7.28;;;;;;;38.91;19.33;99833.00;6183144;23;20064;-67
2021/07/14 08:44:53;;;;;;;7.93;7.13;;;;;;;38.53;19.38;99826.81;6181743;23;20063;-62
2021/07/14 08:47:20;;;;;;;10.00;7.43;;;;;;;38.36;19.84;99836.66;6155601;23;20327;-64
2021/07/14 08:49:49;;;;;;;12.75;7.70;;;;;;;38.28;19.68;99834.56;6182713;23;20426;-64
2021/07/14 08:52:17;;;;;;;8.30;7.15;;;;;;;38.22;19.39;99822.66;6183011;23;20012;-66
2021/07/14 08:54:43;;;;;;;7.68;6.82;;;;;;;38.41;18.82;99816.97;6182553;23;20001;-65
2021/07/14 08:57:11;;;;;;;11.85;7.60;;;;;;;38.57;19.17;99819.47;6155754;23;20005;-69
2021/07/14 08:59:37;;;;;;;9.38;7.22;;;;;;;38.63;17.95;99784.66;6181940;23;20379;-63
2021/07/14 09:02:03;;;;;;;8.38;7.57;;;;;;;38.86;18.36;99805.09;6182928;23;20054;-69
2021/07/14 09:04:29;;;;;;;10.75;8.00;;;;;;;38.98;18.81;99806.56;6183421;23;20025;-67
2021/07/14 09:06:54;;;;;;;10.85;7.45;;;;;;;39.05;18.34;99810.56;6183202;23;20008;-68
2021/07/14 09:09:20;;;;;;;9.57;7.18;;;;;;;39.10;18.19;99806.00;6182086;23;20001;-65
2021/07/14 09:11:58;;;;;;;9.60;7.80;;;;;;;39.25;18.43;99805.63;6183496;23;20008;-62
2021/07/14 09:14:36;;;;;;;8.60;7.25;;;;;;;39.40;18.04;99800.81;6183242;23;20032;-67
2021/07/14 09:17:23;;;;;;;8.48;7.68;;;;;;;39.55;17.82;99799.59;6182994;23;20028;-66
2021/07/14 09:19:53;;;;;;;10.60;7.55;;;;;;;39.31;18.52;99804.38;6156481;23;20083;-64
2021/07/14 09:22:31;;;;;;;9.70;7.63;;;;;;;39.46;18.20;99797.56;6182785;23;20092;-62
2021/07/14 09:24:57;;;;;;;9.57;7.90;;;;;;;39.29;18.57;99791.81;6182227;23;20080;-61
2021/07/14 09:27:28;;;;;;;8.18;7.53;;;;;;;39.33;18.13;99798.44;6182110;23;20488;-60
2021/07/14 09:30:17;;;;;;;8.38;7.32;;;;;;;39.42;18.19;99801.31;6155107;23;20339;-62
2021/07/14 09:32:50;;;;;;;12.75;7.38;;;;;;;39.33;18.15;99798.44;6182356;23;20001;-65
2021/07/14 09:35:34;;;;;;;7.93;6.68;;;;;;;39.50;17.84;99789.34;6182063;23;20005;-64
2021/07/14 09:38:08;;;;;;;8.25;7.53;;;;;;;39.49;17.73;99793.28;6182109;23;20009;-64
2021/07/14 09:40:34;;;;;;;8.55;7.70;;;;;;;39.39;17.74;99793.56;6182041;23;20012;-64
2021/07/14 09:43:07;;;;;;;7.82;6.97;;;;;;;39.44;17.59;99796.22;6181926;23;20308;-66
2021/07/14 09:45:56;;;;;;;8.20;6.80;;;;;;;39.57;17.73;99791.69;6155746;23;20032;-68
2021/07/14 09:48:27;;;;;;;9.25;6.70;;;;;;;39.53;17.53;99793.47;6181809;23;20076;-67
2021/07/14 09:50:57;;;;;;;8.88;7.07;;;;;;;39.58;18.22;99796.97;6180623;23;20084;-64
2021/07/14 09:53:26;;;;;;;7.72;7.03;;;;;;;39.49;18.25;99787.69;6131509;23;19998;-67
2021/07/14 09:55:57;;;;;;;7.97;7.25;;;;;;;39.44;18.22;99790.63;6181877;23;20502;-68
2021/07/14 09:58:29;;;;;;;8.02;7.22;;;;;;;39.44;18.17;99774.66;6182804;23;20005;-68
2021/07/14 10:00:58;;;;;;;8.73;7.75;;;;;;;39.59;17.71;99776.22;6182218;23;20009;-65
2021/07/14 10:03:37;;;;;;;8.73;7.05;;;;;;;39.85;17.74;99777.53;6181848;23;20005;-68
2021/07/14 10:06:11;;;;;;;9.25;6.90;;;;;;;39.94;16.94;99767.19;6181950;23;20008;-66
2021/07/14 10:08:41;;;;;;;8.18;7.40;;;;;;;40.03;16.70;99770.00;6182422;23;20083;-68
2021/07/14 10:11:18;;;;;;;7.60;6.65;;;;;;;40.13;16.02;99772.53;6182659;23;20007;-65
2021/07/14 10:13:52;;;;;;;6.40;5.80;;;;;;;40.15;15.54;99766.56;6182265;23;20091;-69
2021/07/14 10:16:19;;;;;;;8.60;6.57;;;;;;;39.76;15.34;99732.59;6182415;23;20017;-72
2021/07/14 10:19:07;;;;;;;7.57;6.00;;;;;;;40.01;16.01;99755.47;6182117;23;20013;-68
2021/07/14 10:21:39;;;;;;;8.02;6.57;;;;;;;39.76;16.48;99764.28;6181584;23;20013;-67
2021/07/14 10:24:06;;;;;;;6.85;6.18;;;;;;;39.36;16.14;99755.78;6155634;23;20036;-69
2021/07/14 10:26:34;;;;;;;7.88;6.22;;;;;;;38.99;17.14;99753.06;6181671;23;20044;-65
2021/07/14 10:29:00;;;;;;;9.10;7.82;;;;;;;38.59;18.68;99744.47;6182050;23;20073;-65
2021/07/14 10:31:25;;;;;;;7.90;7.10;;;;;;;38.26;19.19;99737.06;6155829;23;20036;-67
2021/07/14 10:33:53;;;;;;;11.00;7.93;;;;;;;38.10;19.09;99744.09;6181766;23;20005;-71
2021/07/14 10:36:22;;;;;;;10.75;7.53;;;;;;;38.15;18.98;99750.44;6182205;23;20005;-69
2021/07/14 10:38:51;;;;;;;12.25;7.40;;;;;;;38.16;18.61;99746.50;6182213;23;20005;-64
2021/07/14 10:41:17;;;;;;;8.13;7.20;;;;;;;38.05;18.41;99736.66;6182396;23;20001;-67
2021/07/14 10:43:47;;;;;;;8.18;7.35;;;;;;;38.14;19.21;99740.38;6181697;23;20390;-65
2021/07/14 10:46:14;;;;;;;9.45;6.90;;;;;;;38.17;18.37;99728.56;6181418;23;20001;-64
2021/07/14 10:48:42;;;;;;;7.45;6.72;;;;;;;38.25;18.56;99723.38;6181894;23;20001;-67
2021/07/14 10:51:08;;;;;;;7.25;6.38;;;;;;;38.30;17.59;99721.31;6181922;23;20043;-69
2021/07/14 10:53:35;;;;;;;7.60;6.90;;;;;;;38.26;18.07;99723.06;6181139;23;20040;-70
2021/07/14 10:56:02;;;;;;;7.80;6.57;;;;;;;38.03;17.44;99694.22;6181889;23;20028;-73
2021/07/14 10:58:29;;;;;;;7.25;6.55;;;;;;;38.08;17.92;99716.47;6182106;23;20033;-65
2021/07/14 11:00:56;;;;;;;7.75;6.43;;;;;;;38.01;17.56;99693.69;6182184;23;20024;-66
2021/07/14 11:03:31;;;;;;;8.82;6.28;;;;;;;38.15;17.51;99710.44;6181902;23;19998;-65
2021/07/14 11:05:57;;;;;;;7.50;6.57;;;;;;;37.82;18.47;99699.38;6181579;23;20062;-66
2021/07/14 11:08:38;;;;;;;7.60;6.78;;;;;;;37.82;18.57;99700.19;6182822;23;20005;-66
2021/07/14 11:11:04;;;;;;;9.90;7.55;;;;;;;37.46;18.95;99703.66;6181855;23;20013;-69
2021/07/14 11:13:32;;;;;;;8.45;7.55;;;;;;;37.36;18.90;99696.31;6181196;23;20422;-66
2021/07/14 11:16:18;;;;;;;8.55;6.70;;;;;;;37.37;19.55;99697.13;6149596;23;20024;-65
2021/07/14 11:18:44;;;;;;;7.03;6.43;;;;;;;37.45;18.49;99679.69;6125494;23;20014;-68
2021/07/14 11:21:09;;;;;;;6.95;6.30;;;;;;;37.52;18.50;99668.94;6152022;23;20016;-67
2021/07/14 11:23:45;;;;;;;6.95;6.22;;;;;;;37.76;18.45;99679.94;6151912;23;20111;-66
2021/07/14 11:26:12;;;;;;;7.82;6.03;;;;;;;37.87;17.79;99674.97;6151826;23;20020;-65
2021/07/14 11:28:37;;;;;;;7.15;6.45;;;;;;;37.88;18.32;99656.22;6151971;23;20005;-65
2021/07/14 11:31:10;;;;;;;8.98;6.90;;;;;;;38.02;18.37;99676.63;6125290;23;20450;-65
2021/07/14 11:33:38;;;;;;;7.78;6.63;;;;;;;37.96;18.48;99671.44;6127961;23;20001;-65
2021/07/14 11:36:06;;;;;;;9.55;7.20;;;;;;;37.95;18.43;99664.19;6153625;23;20124;-66
2021/07/14 11:38:43;;;;;;;8.48;7.55;;;;;;;37.81;18.80;99648.25;6153711;23;20021;-65
2021/07/14 11:41:21;;;;;;;7.70;6.93;;;;;;;38.04;18.54;99667.91;6153533;23;20001;-67
2021/07/14 11:43:49;;;;;;;7.72;6.72;;;;;;;37.87;18.29;99646.19;6153152;23;20036;-66